createdAt,value
2019-03-31T09:29:45.391Z,26.54
2019-03-31T09:34:53.014Z,26.12
2019-03-31T09:40:00.660Z,26.39
2019-03-31T09:45:08.253Z,24.55
2019-03-31T09:50:17.532Z,24.76
2019-03-31T09:55:23.312Z,24.20
2019-03-31T10:00:30.227Z,23.58
2019-03-31T10:05:37.830Z,20.36
2019-03-31T10:10:45.513Z,19.99
2019-03-31T10:15:53.090Z,17.19
2019-03-31T10:21:00.882Z,19.01
2019-03-31T10:26:08.482Z,18.09
2019-03-31T10:31:16.148Z,18.34
2019-03-31T10:36:23.784Z,17.72
2019-03-31T10:41:31.449Z,18.14
2019-03-31T10:46:39.092Z,18.18
2019-03-31T10:51:46.780Z,19.02
2019-03-31T10:56:54.393Z,18.66
2019-03-31T11:02:02.023Z,20.04
2019-03-31T11:07:09.604Z,19.90
2019-03-31T11:12:17.218Z,21.18
2019-03-31T11:17:24.825Z,20.15
2019-03-31T11:22:32.599Z,19.88
2019-03-31T11:27:43.630Z,21.43
2019-03-31T11:32:47.365Z,19.98
2019-03-31T11:37:54.955Z,20.54
2019-03-31T11:43:02.652Z,19.84
2019-03-31T11:48:10.259Z,19.90
2019-03-31T11:53:17.949Z,21.14
2019-03-31T11:58:25.567Z,19.40
2019-03-31T12:03:33.266Z,20.58
2019-03-31T12:08:40.851Z,18.73
2019-03-31T12:13:48.502Z,18.51
2019-03-31T12:18:56.109Z,17.73
2019-03-31T12:24:03.816Z,19.91
2019-03-31T12:29:11.422Z,17.92
2019-03-31T12:34:19.097Z,15.57
2019-03-31T12:39:26.740Z,16.50
2019-03-31T12:44:34.449Z,16.47
2019-03-31T12:49:42.053Z,17.60
2019-03-31T12:54:49.721Z,18.44
2019-03-31T12:59:57.348Z,18.06
2019-03-31T13:05:05.030Z,15.76
2019-03-31T13:10:12.625Z,14.72
2019-03-31T13:15:20.264Z,18.27
2019-03-31T13:20:27.891Z,15.98
2019-03-31T13:25:35.597Z,15.26
2019-03-31T13:30:43.205Z,16.79
2019-03-31T13:35:53.186Z,16.99
2019-03-31T13:40:58.167Z,16.06
2019-03-31T13:46:05.925Z,17.47
2019-03-31T13:51:13.535Z,15.71
2019-03-31T13:56:21.174Z,15.90
2019-03-31T14:01:28.771Z,15.54
2019-03-31T14:06:36.438Z,16.29
2019-03-31T14:11:44.132Z,16.55
2019-03-31T14:16:51.655Z,14.98
2019-03-31T14:21:59.292Z,14.51
2019-03-31T14:27:06.950Z,14.11
2019-03-31T14:32:14.564Z,13.18
2019-03-31T14:37:22.400Z,12.66
2019-03-31T14:42:29.970Z,13.06
2019-03-31T14:47:37.631Z,11.84
2019-03-31T14:52:45.229Z,13.87
2019-03-31T14:57:52.891Z,12.13
2019-03-31T15:03:00.475Z,12.69
2019-03-31T15:08:08.140Z,13.15
2019-03-31T15:13:15.757Z,11.66
2019-03-31T15:18:23.433Z,12.09
2019-03-31T15:23:31.068Z,13.16
2019-03-31T15:28:38.808Z,10.89
2019-03-31T15:33:46.382Z,11.47
2019-03-31T15:39:07.877Z,10.62
2019-03-31T15:44:01.318Z,9.25
2019-03-31T15:49:09.195Z,9.95
2019-03-31T15:54:16.854Z,8.32
2019-03-31T15:59:24.674Z,8.51
2019-03-31T16:04:32.388Z,10.49
2019-03-31T16:09:40.266Z,11.73
2019-03-31T16:14:48.028Z,10.87
2019-03-31T16:19:55.731Z,9.06
2019-03-31T16:25:03.401Z,10.68
2019-03-31T16:30:11.166Z,8.31
2019-03-31T16:35:19.051Z,9.17
2019-03-31T16:40:26.966Z,8.34
2019-03-31T16:45:34.882Z,9.15
2019-03-31T16:50:43.001Z,10.35
2019-03-31T16:55:50.914Z,10.46
2019-03-31T17:00:58.842Z,10.22
2019-03-31T17:06:06.772Z,11.81
2019-03-31T17:11:14.677Z,11.83
2019-03-31T17:16:22.480Z,10.50
2019-03-31T17:21:30.526Z,10.11
2019-03-31T17:26:38.233Z,11.83
2019-03-31T17:31:46.119Z,13.22
2019-03-31T17:36:53.842Z,11.14
2019-03-31T17:42:01.529Z,11.68
2019-03-31T17:47:09.165Z,12.42
2019-03-31T17:52:16.976Z,10.78
2019-03-31T17:57:24.749Z,13.47
2019-03-31T18:02:32.480Z,9.35
2019-03-31T18:07:40.185Z,11.31
2019-03-31T18:12:47.989Z,11.62
2019-03-31T18:17:55.736Z,12.11
2019-03-31T18:23:03.497Z,11.27
2019-03-31T18:28:11.288Z,12.88
2019-03-31T18:33:19.060Z,12.21
2019-03-31T18:38:26.898Z,13.16
2019-03-31T18:43:34.653Z,13.85
2019-03-31T18:48:42.427Z,12.51
2019-03-31T18:53:50.255Z,10.93
2019-03-31T18:58:58.056Z,11.80
2019-03-31T19:04:06.085Z,14.64
2019-03-31T19:09:13.901Z,11.71
2019-03-31T19:14:22.051Z,10.71
2019-03-31T19:19:29.711Z,9.73
2019-03-31T19:24:37.785Z,13.92
2019-03-31T19:29:45.569Z,13.12
2019-03-31T19:34:53.591Z,12.32
2019-03-31T19:40:01.513Z,11.97
2019-03-31T19:45:09.372Z,11.40
2019-03-31T19:50:17.237Z,13.15
2019-03-31T19:55:25.025Z,13.31
2019-03-31T20:00:32.867Z,9.68
2019-03-31T20:05:40.700Z,10.86
2019-03-31T20:10:48.540Z,11.31
2019-03-31T20:15:56.263Z,12.55
2019-03-31T20:21:03.865Z,13.17
2019-03-31T20:26:11.607Z,11.54
2019-03-31T20:31:19.245Z,10.96
2019-03-31T20:36:26.913Z,12.44
2019-03-31T20:41:34.582Z,11.93
2019-03-31T20:46:42.269Z,11.33
2019-03-31T20:51:49.890Z,10.70
2019-03-31T20:56:57.586Z,10.94
2019-03-31T21:02:05.198Z,11.50
2019-03-31T21:07:12.885Z,9.58
2019-03-31T21:12:20.521Z,11.30
2019-03-31T21:17:28.218Z,11.75
2019-03-31T21:22:35.844Z,12.21
2019-03-31T21:27:43.515Z,12.19
2019-03-31T21:32:51.125Z,18.64
2019-03-31T21:37:58.757Z,10.21
2019-03-31T21:43:06.385Z,13.22
2019-03-31T21:48:14.049Z,14.34
2019-03-31T21:53:21.712Z,12.33
2019-03-31T21:58:29.340Z,13.96
2019-03-31T22:03:36.954Z,15.34
2019-03-31T22:08:44.665Z,11.58
2019-03-31T22:13:52.285Z,10.25
2019-03-31T22:18:59.922Z,11.52
2019-03-31T22:24:07.534Z,10.83
2019-03-31T22:29:15.211Z,13.17
2019-03-31T22:34:22.813Z,10.38
2019-03-31T22:39:30.507Z,10.96
2019-03-31T22:44:38.109Z,13.17
2019-03-31T22:49:45.771Z,9.97
2019-03-31T22:54:53.403Z,13.11
2019-03-31T23:00:01.058Z,11.30
2019-03-31T23:05:08.673Z,13.68
2019-03-31T23:10:16.344Z,10.83
2019-03-31T23:15:23.951Z,9.56
2019-03-31T23:20:31.670Z,10.83
2019-03-31T23:25:39.298Z,12.87
2019-03-31T23:30:47.006Z,11.57
2019-03-31T23:35:54.637Z,11.90
2019-03-31T23:41:02.290Z,13.41
2019-03-31T23:46:09.878Z,8.23
2019-03-31T23:51:17.521Z,9.31
2019-03-31T23:56:25.139Z,8.79
